createdAt,value
2019-03-05T00:01:06.424Z,99649.80
2019-03-05T00:03:34.860Z,99648.80
2019-03-05T00:06:03.332Z,99649.30
2019-03-05T00:08:31.765Z,99645.72
2019-03-05T00:11:00.183Z,99647.08
2019-03-05T00:13:28.696Z,99653.06
2019-03-05T00:15:57.094Z,99654.92
2019-03-05T00:18:25.762Z,99664.45
2019-03-05T00:20:54.192Z,99663.56
2019-03-05T00:23:42.151Z,99664.92
2019-03-05T00:26:10.592Z,99663.73
2019-03-05T00:28:51.175Z,99661.19
2019-03-05T00:31:25.310Z,99667.99
2019-03-05T00:34:02.722Z,99671.91
2019-03-05T00:36:37.140Z,99667.64
2019-03-05T00:39:30.724Z,99683.50
2019-03-05T00:42:11.268Z,99677.70
2019-03-05T00:45:14.900Z,99680.42
2019-03-05T00:48:17.023Z,99670.89
2019-03-05T00:51:24.991Z,99667.34
2019-03-05T00:54:25.346Z,99662.89
2019-03-05T00:56:59.736Z,99685.21
2019-03-05T00:59:34.013Z,99690.66
2019-03-05T01:02:34.390Z,99685.21
2019-03-05T01:05:17.989Z,99684.67
2019-03-05T01:07:46.408Z,99690.98
2019-03-05T01:10:16.529Z,99699.15
2019-03-05T01:12:45.205Z,99685.70
2019-03-05T01:15:13.981Z,99690.30
2019-03-05T01:17:42.399Z,99684.02
2019-03-05T01:20:12.169Z,99686.39
2019-03-05T01:22:40.579Z,99702.55
2019-03-05T01:25:28.516Z,99705.27
2019-03-05T01:27:56.981Z,99697.63
2019-03-05T01:30:41.371Z,99696.45
2019-03-05T01:33:11.435Z,99702.39
2019-03-05T01:35:41.564Z,99699.84
2019-03-05T01:38:10.057Z,99694.91
2019-03-05T01:40:39.110Z,99706.15
2019-03-05T01:43:07.523Z,99704.25
2019-03-05T01:45:35.946Z,99700.17
2019-03-05T01:48:04.351Z,99707.34
2019-03-05T01:50:32.813Z,99707.34
2019-03-05T01:53:01.211Z,99705.11
2019-03-05T01:55:29.669Z,99701.70
2019-03-05T01:57:58.247Z,99700.52
2019-03-05T02:00:26.925Z,99688.27
2019-03-05T02:02:55.344Z,99672.80
2019-03-05T02:05:23.935Z,99685.05
2019-03-05T02:07:52.908Z,99671.25
2019-03-05T02:10:22.619Z,99677.05
2019-03-05T02:12:51.052Z,99676.69
2019-03-05T02:15:19.526Z,99686.06
2019-03-05T02:17:48.034Z,99689.97
2019-03-05T02:20:24.626Z,99684.20
2019-03-05T02:22:58.855Z,99694.06
2019-03-05T02:25:33.088Z,99692.87
2019-03-05T02:28:27.103Z,99683.17
2019-03-05T02:31:07.847Z,99677.23
2019-03-05T02:34:03.452Z,99675.33
2019-03-05T02:36:51.142Z,99675.86
2019-03-05T02:39:37.619Z,99676.36
2019-03-05T02:42:09.106Z,99679.95
2019-03-05T02:45:03.448Z,99680.45
2019-03-05T02:47:40.143Z,99681.81
2019-03-05T02:50:33.007Z,99677.90
2019-03-05T02:53:38.025Z,99677.40
2019-03-05T02:56:18.570Z,99686.39
2019-03-05T02:58:45.929Z,99686.56
2019-03-05T03:01:32.228Z,99682.84
2019-03-05T03:04:02.295Z,99695.09
2019-03-05T03:06:31.304Z,99690.47
2019-03-05T03:09:25.231Z,99693.56
2019-03-05T03:11:53.645Z,99690.15
2019-03-05T03:14:22.068Z,99704.09
2019-03-05T03:16:50.504Z,99683.34
2019-03-05T03:19:18.967Z,99694.73
2019-03-05T03:21:47.406Z,99701.36
2019-03-05T03:24:15.814Z,99707.84
2019-03-05T03:26:44.235Z,99701.53
2019-03-05T03:29:12.652Z,99708.88
2019-03-05T03:31:41.068Z,99716.00
2019-03-05T03:34:09.501Z,99715.85
2019-03-05T03:36:37.892Z,99718.58
2019-03-05T03:39:06.762Z,99729.79
2019-03-05T03:41:35.187Z,99716.68
2019-03-05T03:44:03.619Z,99710.58
2019-03-05T03:46:32.021Z,99707.86
2019-03-05T03:49:00.459Z,99711.41
2019-03-05T03:51:28.857Z,99710.58
2019-03-05T03:53:57.286Z,99712.27
2019-03-05T03:56:25.726Z,99713.80
2019-03-05T03:58:54.123Z,99716.52
2019-03-05T04:01:22.611Z,99714.48
2019-03-05T04:03:51.009Z,99717.21
2019-03-05T04:06:19.440Z,99708.69
2019-03-05T04:08:47.842Z,99705.14
2019-03-05T04:11:16.253Z,99702.23
2019-03-05T04:13:44.664Z,99703.59
2019-03-05T04:16:13.090Z,99710.92
2019-03-05T04:18:41.492Z,99705.48
2019-03-05T04:21:09.933Z,99707.67
2019-03-05T04:23:38.403Z,99715.84
2019-03-05T04:26:06.841Z,99708.38
2019-03-05T04:28:35.273Z,99709.20
2019-03-05T04:31:03.695Z,99709.20
2019-03-05T04:33:32.103Z,99714.65
2019-03-05T04:36:00.528Z,99720.63
2019-03-05T04:38:28.984Z,99714.15
2019-03-05T04:40:57.394Z,99723.34
2019-03-05T04:43:25.819Z,99709.73
2019-03-05T04:46:01.576Z,99717.04
2019-03-05T04:48:30.009Z,99715.68
2019-03-05T04:51:00.134Z,99720.80
2019-03-05T04:53:28.552Z,99721.63
2019-03-05T04:55:56.981Z,99724.70
2019-03-05T04:58:25.426Z,99717.21
2019-03-05T05:00:53.824Z,99720.27
2019-03-05T05:03:22.259Z,99725.70
2019-03-05T05:05:50.652Z,99726.06
2019-03-05T05:08:19.088Z,99722.16
2019-03-05T05:10:47.474Z,99717.71
2019-03-05T05:13:15.972Z,99719.61
2019-03-05T05:15:44.401Z,99718.42
2019-03-05T05:18:12.880Z,99721.97
2019-03-05T05:20:41.304Z,99720.11
2019-03-05T05:23:09.750Z,99727.41
2019-03-05T05:25:38.188Z,99719.24
2019-03-05T05:28:06.596Z,99721.47
2019-03-05T05:30:39.942Z,99724.19
2019-03-05T05:33:09.178Z,99723.16
2019-03-05T05:35:37.839Z,99713.80
2019-03-05T05:38:06.318Z,99719.77
2019-03-05T05:40:36.694Z,99720.97
2019-03-05T05:43:07.258Z,99725.55
2019-03-05T05:45:44.475Z,99720.61
2019-03-05T05:48:12.974Z,99726.91
2019-03-05T05:50:41.419Z,99731.48
2019-03-05T05:53:09.922Z,99720.77
2019-03-05T05:55:38.316Z,99729.30
2019-03-05T05:58:06.715Z,99732.84
2019-03-05T06:00:36.789Z,99739.16
2019-03-05T06:03:05.282Z,99731.85
2019-03-05T06:05:33.703Z,99730.49
2019-03-05T06:08:02.132Z,99723.69
2019-03-05T06:10:30.578Z,99725.05
2019-03-05T06:12:58.999Z,99725.55
2019-03-05T06:15:27.404Z,99737.62
2019-03-05T06:17:55.830Z,99735.41
2019-03-05T06:20:24.235Z,99733.21
2019-03-05T06:22:52.674Z,99725.55
2019-03-05T06:25:21.103Z,99727.59
2019-03-05T06:27:49.528Z,99729.78
2019-03-05T06:30:20.122Z,99738.98
2019-03-05T06:32:48.549Z,99731.15
2019-03-05T06:35:17.059Z,99728.42
2019-03-05T06:37:45.486Z,99734.23
2019-03-05T06:40:16.693Z,99736.42
2019-03-05T06:42:45.200Z,99737.78
2019-03-05T06:45:18.248Z,99734.56
2019-03-05T06:47:46.692Z,99740.50
2019-03-05T06:50:22.112Z,99738.64
2019-03-05T06:52:51.101Z,99739.50
2019-03-05T06:55:19.519Z,99744.41
2019-03-05T06:57:47.939Z,99740.50
2019-03-05T07:00:40.710Z,99749.20
2019-03-05T07:03:10.277Z,99744.59
2019-03-05T07:06:14.932Z,99744.59
2019-03-05T07:08:49.282Z,99752.75
2019-03-05T07:11:29.336Z,99749.86
2019-03-05T07:14:03.659Z,99747.13
2019-03-05T07:16:37.689Z,99753.44
2019-03-05T07:19:06.631Z,99754.64
2019-03-05T07:21:49.980Z,99761.45
2019-03-05T07:24:42.560Z,99758.55
2019-03-05T07:27:11.324Z,99762.11
2019-03-05T07:29:39.799Z,99761.11
2019-03-05T07:32:08.236Z,99759.74
2019-03-05T07:34:38.295Z,99766.55
2019-03-05T07:37:09.266Z,99767.38
2019-03-05T07:39:37.684Z,99772.98
2019-03-05T07:42:06.191Z,99761.94
2019-03-05T07:44:34.612Z,99769.10
2019-03-05T07:47:03.014Z,99785.93
2019-03-05T07:49:42.963Z,99777.27
2019-03-05T07:52:01.571Z,99778.45
2019-03-05T07:54:30.010Z,99778.45
2019-03-05T07:56:58.447Z,99779.64
2019-03-05T07:59:26.879Z,99771.48
2019-03-05T08:01:55.297Z,99780.30
2019-03-05T08:04:23.721Z,99769.24
2019-03-05T08:06:52.133Z,99770.60
2019-03-05T08:09:33.579Z,99773.34
2019-03-05T08:12:25.080Z,99764.51
2019-03-05T08:15:02.362Z,99768.41
2019-03-05T08:17:30.832Z,99775.59
2019-03-05T08:19:59.327Z,99773.36
2019-03-05T08:22:27.727Z,99774.38
2019-03-05T08:24:56.231Z,99782.39
2019-03-05T08:27:24.629Z,99781.86
2019-03-05T08:29:53.060Z,99792.58
2019-03-05T08:32:21.481Z,99793.11
2019-03-05T08:34:49.899Z,99791.41
2019-03-05T08:37:18.300Z,99792.06
2019-03-05T08:39:46.798Z,99790.03
2019-03-05T08:42:15.199Z,99802.63
2019-03-05T08:44:50.309Z,99789.16
2019-03-05T08:47:13.803Z,99794.11
2019-03-05T08:49:42.291Z,99796.31
2019-03-05T08:52:10.745Z,99801.94
2019-03-05T08:54:39.159Z,99799.39
2019-03-05T08:57:07.578Z,99800.23
2019-03-05T08:59:36.018Z,99794.78
2019-03-05T09:02:04.512Z,99796.49
2019-03-05T09:04:32.929Z,99795.65
2019-03-05T09:07:01.391Z,99794.11
2019-03-05T09:09:29.951Z,99791.92
2019-03-05T09:11:58.654Z,99798.38
2019-03-05T09:14:27.062Z,99787.66
2019-03-05T09:16:55.513Z,99800.42
2019-03-05T09:19:23.937Z,99784.59
2019-03-05T09:21:52.376Z,99795.47
2019-03-05T09:24:20.769Z,99790.03
2019-03-05T09:26:51.417Z,99791.92
2019-03-05T09:29:20.607Z,99800.09
2019-03-05T09:31:49.037Z,99801.59
2019-03-05T09:34:17.491Z,99810.13
2019-03-05T09:36:50.945Z,99811.81
2019-03-05T09:39:16.389Z,99815.72
2019-03-05T09:41:44.961Z,99825.95
2019-03-05T09:44:13.375Z,99817.61
2019-03-05T09:46:41.786Z,99809.09
2019-03-05T09:49:10.314Z,99811.64
2019-03-05T09:51:38.703Z,99815.92
2019-03-05T09:54:07.173Z,99810.80
2019-03-05T09:56:35.609Z,99818.63
2019-03-05T09:59:05.659Z,99822.38
2019-03-05T10:01:34.153Z,99831.20
2019-03-05T10:04:02.727Z,99835.98
2019-03-05T10:06:31.197Z,99832.23
2019-03-05T10:08:59.583Z,99832.77
2019-03-05T10:11:28.027Z,99824.77
2019-03-05T10:13:56.438Z,99817.78
2019-03-05T10:16:24.846Z,99815.56
2019-03-05T10:18:53.283Z,99816.59
2019-03-05T10:21:21.707Z,99808.41
2019-03-05T10:23:50.299Z,99807.70
2019-03-05T10:26:18.917Z,99807.36
2019-03-05T10:28:47.426Z,99804.29
2019-03-05T10:31:18.502Z,99806.16
2019-03-05T10:33:46.222Z,99794.77
2019-03-05T10:36:14.691Z,99796.45
2019-03-05T10:38:43.125Z,99799.02
2019-03-05T10:41:11.718Z,99799.52
2019-03-05T10:43:40.126Z,99792.86
2019-03-05T10:46:08.615Z,99795.94
2019-03-05T10:48:37.035Z,99800.36
2019-03-05T10:51:05.960Z,99794.56
2019-03-05T10:53:34.467Z,99791.66
2019-03-05T10:56:02.954Z,99785.17
2019-03-05T10:58:34.186Z,99782.78
2019-03-05T11:01:01.992Z,99782.42
2019-03-05T11:03:31.056Z,99785.16
2019-03-05T11:05:59.916Z,99782.08
2019-03-05T11:08:28.616Z,99782.08
2019-03-05T11:10:57.471Z,99782.44
2019-03-05T11:13:25.976Z,99773.75
2019-03-05T11:16:02.395Z,99772.23
2019-03-05T11:18:30.831Z,99766.60
2019-03-05T11:20:59.586Z,99780.25
2019-03-05T11:23:28.006Z,99771.55
2019-03-05T11:25:56.422Z,99772.23
2019-03-05T11:28:24.886Z,99772.23
2019-03-05T11:30:53.462Z,99778.87
2019-03-05T11:33:22.240Z,99771.87
2019-03-05T11:35:50.840Z,99782.78
2019-03-05T11:38:19.960Z,99785.17
2019-03-05T11:40:48.500Z,99771.89
2019-03-05T11:43:17.871Z,99789.11
2019-03-05T11:45:46.520Z,99783.80
2019-03-05T11:48:16.006Z,99793.70
2019-03-05T11:50:44.974Z,99783.31
2019-03-05T11:53:13.518Z,99788.05
2019-03-05T11:55:42.121Z,99794.69
2019-03-05T11:58:10.588Z,99787.87
2019-03-05T12:00:41.005Z,99793.69
2019-03-05T12:03:09.477Z,99796.41
2019-03-05T12:05:37.905Z,99798.60
2019-03-05T12:08:06.376Z,99806.28
2019-03-05T12:10:35.071Z,99800.14
2019-03-05T12:13:03.835Z,99799.12
2019-03-05T12:15:44.110Z,99798.98
2019-03-05T12:18:12.642Z,99797.44
2019-03-05T12:20:41.193Z,99804.08
2019-03-05T12:23:10.355Z,99805.44
2019-03-05T12:25:41.074Z,99802.56
2019-03-05T12:28:10.995Z,99805.44
2019-03-05T12:30:40.143Z,99805.26
2019-03-05T12:33:08.719Z,99804.08
2019-03-05T12:35:37.212Z,99799.81
2019-03-05T12:38:06.065Z,99793.00
2019-03-05T12:40:34.480Z,99788.23
2019-03-05T12:43:02.990Z,99789.42
2019-03-05T12:45:31.419Z,99793.34
2019-03-05T12:47:59.830Z,99794.84
2019-03-05T12:50:30.108Z,99793.98
2019-03-05T12:52:58.803Z,99791.97
2019-03-05T12:55:27.491Z,99798.97
2019-03-05T12:57:56.004Z,99799.64
2019-03-05T13:00:35.066Z,99796.41
2019-03-05T13:03:04.160Z,99805.59
2019-03-05T13:05:32.656Z,99809.68
2019-03-05T13:08:01.091Z,99809.36
2019-03-05T13:10:34.939Z,99809.53
2019-03-05T13:13:01.230Z,99812.76
2019-03-05T13:15:38.814Z,99815.66
2019-03-05T13:18:07.319Z,99817.52
2019-03-05T13:20:35.762Z,99824.01
2019-03-05T13:23:08.849Z,99818.41
2019-03-05T13:25:34.584Z,99830.50
2019-03-05T13:28:04.212Z,99818.23
2019-03-05T13:30:33.225Z,99824.36
2019-03-05T13:33:01.833Z,99829.48
2019-03-05T13:35:32.028Z,99831.34
2019-03-05T13:38:03.224Z,99831.34
2019-03-05T13:40:34.029Z,99829.12
2019-03-05T13:43:03.107Z,99838.66
2019-03-05T13:45:31.611Z,99842.75
2019-03-05T13:48:19.650Z,99853.65
2019-03-05T13:51:19.431Z,99852.28
2019-03-05T13:54:05.715Z,99860.81
2019-03-05T13:56:42.206Z,99872.59
2019-03-05T13:59:37.522Z,99881.42
2019-03-05T14:02:07.704Z,99883.64
2019-03-05T14:05:00.464Z,99887.19
2019-03-05T14:08:00.698Z,99890.11
2019-03-05T14:10:29.116Z,99897.92
2019-03-05T14:12:57.561Z,99884.65
2019-03-05T14:15:26.107Z,99892.47
2019-03-05T14:17:54.524Z,99896.55
2019-03-05T14:20:31.607Z,99892.64
2019-03-05T14:22:53.092Z,99902.70
2019-03-05T14:25:21.546Z,99903.73
2019-03-05T14:27:49.945Z,99907.46
2019-03-05T14:30:21.144Z,99904.42
2019-03-05T14:32:50.182Z,99902.01
2019-03-05T14:35:19.654Z,99915.14
2019-03-05T14:37:48.499Z,99914.28
2019-03-05T14:40:24.749Z,99919.59
2019-03-05T14:42:53.250Z,99923.33
2019-03-05T14:45:27.638Z,99925.17
2019-03-05T14:47:57.833Z,99918.03
2019-03-05T14:50:26.253Z,99901.16
2019-03-05T14:52:54.685Z,99907.79
2019-03-05T14:55:23.343Z,99913.57
2019-03-05T14:57:51.985Z,99927.55
2019-03-05T15:00:21.640Z,99935.91
2019-03-05T15:02:50.202Z,99939.47
2019-03-05T15:05:18.765Z,99937.09
2019-03-05T15:07:47.166Z,99944.58
2019-03-05T15:10:15.699Z,99953.14
2019-03-05T15:12:44.144Z,99944.25
2019-03-05T15:15:15.581Z,99954.83
2019-03-05T15:17:43.983Z,99956.87
2019-03-05T15:20:12.617Z,99951.77
2019-03-05T15:22:41.012Z,99952.09
2019-03-05T15:25:12.074Z,99958.23
2019-03-05T15:27:40.486Z,99962.30
2019-03-05T15:30:14.769Z,99962.64
2019-03-05T15:32:43.238Z,99955.14
2019-03-05T15:35:12.768Z,99960.27
2019-03-05T15:37:41.235Z,99953.95
2019-03-05T15:40:15.276Z,99956.49
2019-03-05T15:42:43.793Z,99960.05
2019-03-05T15:45:22.837Z,99966.20
2019-03-05T15:47:51.272Z,99957.30
2019-03-05T15:50:30.014Z,99950.66
2019-03-05T15:52:58.423Z,99952.71
2019-03-05T15:55:27.307Z,99945.54
2019-03-05T15:57:55.735Z,99944.71
2019-03-05T16:00:30.484Z,99955.94
2019-03-05T16:02:59.549Z,99955.24
2019-03-05T16:05:28.820Z,99944.52
2019-03-05T16:07:57.241Z,99950.30
2019-03-05T16:10:25.701Z,99950.30
2019-03-05T16:12:54.100Z,99945.19
2019-03-05T16:15:22.637Z,99954.85
2019-03-05T16:17:51.137Z,99955.19
2019-03-05T16:20:21.159Z,99949.25
2019-03-05T16:22:51.215Z,99959.77
2019-03-05T16:25:22.274Z,99957.05
2019-03-05T16:27:50.757Z,99967.56
2019-03-05T16:30:42.768Z,99965.54
2019-03-05T16:33:15.900Z,99967.03
2019-03-05T16:36:02.405Z,99965.84
2019-03-05T16:38:44.449Z,99971.77
2019-03-05T16:41:23.377Z,99977.75
2019-03-05T16:44:09.857Z,99991.15
2019-03-05T16:46:42.623Z,99990.28
2019-03-05T16:49:18.789Z,99990.61
2019-03-05T16:52:05.486Z,99994.35
2019-03-05T16:54:41.444Z,100008.62
2019-03-05T16:57:11.524Z,100012.05
2019-03-05T16:59:44.108Z,100015.09
2019-03-05T17:02:29.783Z,100010.35
2019-03-05T17:05:08.807Z,100013.07
2019-03-05T17:07:41.807Z,100010.69
2019-03-05T17:10:13.411Z,100013.94
2019-03-05T17:12:42.017Z,100020.42
2019-03-05T17:15:11.187Z,100021.28
2019-03-05T17:17:39.631Z,100032.16
2019-03-05T17:20:10.923Z,100029.77
2019-03-05T17:22:39.330Z,100034.52
2019-03-05T17:25:13.614Z,100035.05
2019-03-05T17:27:42.050Z,100034.19
2019-03-05T17:30:13.566Z,100043.05
2019-03-05T17:32:41.967Z,100049.16
2019-03-05T17:35:11.362Z,100052.25
2019-03-05T17:37:39.917Z,100054.60
2019-03-05T17:40:13.305Z,100058.89
2019-03-05T17:42:41.985Z,100064.17
2019-03-05T17:45:21.768Z,100070.97
2019-03-05T17:47:53.817Z,100073.48
2019-03-05T17:50:22.259Z,100086.59
2019-03-05T17:52:50.714Z,100086.93
2019-03-05T17:55:24.659Z,100089.00
2019-03-05T17:57:51.915Z,100096.52
2019-03-05T18:00:23.215Z,100099.73
2019-03-05T18:02:51.732Z,100110.32
2019-03-05T18:05:20.142Z,100115.22
2019-03-05T18:07:48.582Z,100110.61
2019-03-05T18:10:17.440Z,100117.41
2019-03-05T18:12:45.877Z,100121.98
2019-03-05T18:15:17.680Z,100133.19
2019-03-05T18:17:46.122Z,100132.86
2019-03-05T18:20:17.658Z,100132.36
2019-03-05T18:22:46.366Z,100121.48
2019-03-05T18:25:16.122Z,100126.05
2019-03-05T18:27:44.749Z,100128.44
2019-03-05T18:30:22.109Z,100130.12
2019-03-05T18:32:50.624Z,100131.81
2019-03-05T18:35:20.087Z,100137.25
2019-03-05T18:37:48.552Z,100140.47
2019-03-05T18:40:21.347Z,100143.02
2019-03-05T18:42:50.090Z,100144.88
2019-03-05T18:45:33.693Z,100140.64
2019-03-05T18:48:02.196Z,100140.14
2019-03-05T18:50:30.692Z,100133.16
2019-03-05T18:53:00.673Z,100133.45
2019-03-05T18:55:29.570Z,100134.64
2019-03-05T18:57:58.094Z,100135.77
2019-03-05T19:00:28.444Z,100147.13
2019-03-05T19:03:14.969Z,100144.41
2019-03-05T19:05:43.469Z,100153.70
2019-03-05T19:08:11.980Z,100154.73
2019-03-05T19:10:40.646Z,100157.45
2019-03-05T19:13:09.162Z,100160.46
2019-03-05T19:15:37.761Z,100160.09
2019-03-05T19:18:07.359Z,100159.05
2019-03-05T19:20:35.786Z,100166.50
2019-03-05T19:23:04.322Z,100166.63
2019-03-05T19:25:35.098Z,100175.95
2019-03-05T19:28:03.624Z,100175.25
2019-03-05T19:30:40.201Z,100171.33
2019-03-05T19:33:08.660Z,100175.94
2019-03-05T19:35:37.088Z,100160.09
2019-03-05T19:38:05.772Z,100166.17
2019-03-05T19:40:36.990Z,100172.82
2019-03-05T19:43:06.588Z,100177.28
2019-03-05T19:45:35.181Z,100172.13
2019-03-05T19:48:03.802Z,100176.37
2019-03-05T19:50:32.304Z,100183.68
2019-03-05T19:53:00.961Z,100179.34
2019-03-05T19:55:30.134Z,100174.89
2019-03-05T19:58:14.177Z,100176.00
2019-03-05T20:00:47.304Z,100173.73
2019-03-05T20:03:15.719Z,100180.67
2019-03-05T20:05:44.224Z,100179.62
2019-03-05T20:08:12.638Z,100182.14
2019-03-05T20:10:41.128Z,100179.20
2019-03-05T20:13:09.568Z,100183.42
2019-03-05T20:15:38.978Z,100176.79
2019-03-05T20:18:07.595Z,100180.33
2019-03-05T20:20:36.071Z,100185.03
2019-03-05T20:23:05.228Z,100190.73
2019-03-05T20:25:33.819Z,100189.03
2019-03-05T20:28:02.252Z,100187.11
2019-03-05T20:30:30.835Z,100193.00
2019-03-05T20:32:59.268Z,100198.20
2019-03-05T20:35:27.721Z,100192.73
2019-03-05T20:37:56.230Z,100190.66
2019-03-05T20:40:27.025Z,100193.04
2019-03-05T20:42:55.508Z,100193.16
2019-03-05T20:45:29.772Z,100198.40
2019-03-05T20:47:58.571Z,100193.45
2019-03-05T20:50:27.054Z,100192.97
2019-03-05T20:52:55.633Z,100190.93
2019-03-05T20:55:25.302Z,100186.59
2019-03-05T20:57:53.749Z,100193.45
2019-03-05T21:00:30.955Z,100187.34
2019-03-05T21:03:04.499Z,100192.77
2019-03-05T21:05:35.691Z,100196.55
2019-03-05T21:08:04.691Z,100201.48
2019-03-05T21:10:33.161Z,100194.55
2019-03-05T21:13:02.793Z,100192.69
2019-03-05T21:15:33.035Z,100195.91
2019-03-05T21:18:02.441Z,100195.03
2019-03-05T21:20:30.985Z,100190.13
2019-03-05T21:22:59.415Z,100189.11
2019-03-05T21:25:27.853Z,100189.83
2019-03-05T21:27:56.383Z,100192.17
2019-03-05T21:30:28.763Z,100199.67
2019-03-05T21:32:57.257Z,100196.61
2019-03-05T21:35:25.817Z,100198.95
2019-03-05T21:37:54.617Z,100193.19
2019-03-05T21:40:27.877Z,100201.19
2019-03-05T21:42:56.377Z,100197.59
2019-03-05T21:45:43.005Z,100197.97
2019-03-05T21:48:11.425Z,100200.54
2019-03-05T21:50:39.836Z,100202.39
2019-03-05T21:53:08.382Z,100199.52
2019-03-05T21:55:36.889Z,100193.25
2019-03-05T21:58:05.474Z,100197.17
2019-03-05T22:00:39.665Z,100196.66
2019-03-05T22:03:08.162Z,100200.73
2019-03-05T22:05:36.607Z,100192.58
2019-03-05T22:08:05.035Z,100195.30
2019-03-05T22:10:33.906Z,100189.52
2019-03-05T22:13:02.369Z,100187.30
2019-03-05T22:15:32.543Z,100196.80
2019-03-05T22:18:00.957Z,100191.89
2019-03-05T22:20:29.402Z,100191.75
2019-03-05T22:22:58.215Z,100183.22
2019-03-05T22:25:28.762Z,100185.78
2019-03-05T22:27:56.799Z,100183.07
2019-03-05T22:30:33.660Z,100184.43
2019-03-05T22:33:02.137Z,100190.73
2019-03-05T22:35:30.657Z,100192.42
2019-03-05T22:37:59.115Z,100187.52
2019-03-05T22:40:28.362Z,100179.15
2019-03-05T22:42:57.323Z,100185.78
2019-03-05T22:45:33.001Z,100175.94
2019-03-05T22:48:01.444Z,100174.24
2019-03-05T22:50:29.937Z,100175.07
2019-03-05T22:52:58.381Z,100184.43
2019-03-05T22:55:26.803Z,100176.80
2019-03-05T22:57:55.599Z,100180.02
2019-03-05T23:00:37.900Z,100174.24
2019-03-05T23:03:09.233Z,100168.66
2019-03-05T23:05:37.645Z,100174.42
2019-03-05T23:08:06.624Z,100167.14
2019-03-05T23:10:35.305Z,100166.43
2019-03-05T23:13:04.321Z,100170.66
2019-03-05T23:15:33.755Z,100167.94
2019-03-05T23:18:02.206Z,100171.67
2019-03-05T23:20:31.168Z,100170.16
2019-03-05T23:22:59.644Z,100159.95
2019-03-05T23:25:28.428Z,100165.23
2019-03-05T23:27:57.077Z,100162.17
2019-03-05T23:30:25.522Z,100158.92
2019-03-05T23:32:54.424Z,100157.42
2019-03-05T23:35:22.928Z,100159.30
2019-03-05T23:37:51.441Z,100158.59
2019-03-05T23:40:20.161Z,100163.38
2019-03-05T23:42:48.646Z,100164.02
2019-03-05T23:45:18.604Z,100164.88
2019-03-05T23:47:47.119Z,100163.53
2019-03-05T23:50:16.397Z,100155.72
2019-03-05T23:52:45.104Z,100155.22
2019-03-05T23:55:14.262Z,100147.91
2019-03-05T23:57:42.958Z,100144.36
